Caden Foss — WDJ6190 — position and weather

sailwx.info

Track history (hours):
 
Tides and Currents Weather Stations Pressure Air Temp Water Temp Dewpoint Dewpoint Depression Visibility Wind Speed Wind Dir Waves Ship Positions

Caden Foss

Owner: Foss Maritime Co, Seattle, WA. More information available from US FCC via Universal Licensing System and Coast Guard Vessel Documentation Center.

Last reported at 2018-Jul-16 14:30 UTC. Time now 2018-Jul-16 14:45 UTC.
Position N 37°54' W 122°22'.

Length 34 m; draft 6.1 m.

Type: Tug. MMSI: 367795270.

Date/timePositionNaut miles runAvg speedWind from/ knotsBaromVisibWave heightAir tempDewpointWater temp
2018-Jul-16 14:30N 37°54' W 122°22'0 0.0
2018-Jul-16 14:00N 37°54' W 122°22'2 4.4
2018-Jul-16 13:30N 37°54' W 122°25'5 9.2
2018-Jul-16 13:00N 37°50' W 122°22'4 8.0
2018-Jul-16 12:30N 37°48' W 122°19'0 0.1
2018-Jul-16 12:01N 37°48' W 122°19'0 0.1
2018-Jul-16 11:31N 37°48' W 122°18'3 5.4
2018-Jul-16 10:58N 37°49' W 122°22'0 0.0
2018-Jul-16 10:31N 37°49' W 122°22'0 0.0
2018-Jul-16 09:58N 37°49' W 122°22'0 0.1
2018-Jul-16 09:25N 37°49' W 122°22'0 0.0
2018-Jul-16 08:58N 37°49' W 122°22'0 0.0
2018-Jul-16 08:28N 37°49' W 122°22'2 5.2
2018-Jul-16 08:00N 37°51' W 122°23'3 6.5
2018-Jul-16 07:30N 37°54' W 122°24'2 3.9
2018-Jul-16 07:00N 37°55' W 122°22'0 0.2
2018-Jul-16 06:30N 37°55' W 122°22'1 1.8
2018-Jul-16 06:00N 37°54' W 122°23'2 4.3
2018-Jul-16 05:31N 37°55' W 122°25'1 1.7
2018-Jul-16 05:00N 37°56' W 122°25'1 1.2
2018-Jul-16 04:30N 37°55' W 122°24'0 0.2
2018-Jul-16 04:00N 37°55' W 122°25'0 0.0
2018-Jul-16 03:30N 37°55' W 122°25'0 0.0
2018-Jul-16 03:00N 37°55' W 122°25'1 3.0
2018-Jul-16 02:30N 37°54' W 122°25'4 8.4
2018-Jul-16 02:00N 37°50' W 122°28'3 6.6
2018-Jul-16 01:30N 37°49' W 122°32'3 5.8
2018-Jul-16 01:01N 37°50' W 122°28'5 9.8
2018-Jul-16 00:30N 37°48' W 122°22'4 8.1
2018-Jul-16 00:00N 37°44' W 122°20'2 3.6
2018-Jul-15 23:30N 37°46' W 122°21'510.4
2018-Jul-15 23:00N 37°51' W 122°24'4 8.8
2018-Jul-15 22:30N 37°55' W 122°25'0 0.5
2018-Jul-15 21:58N 37°55' W 122°25'0 0.0
2018-Jul-15 21:25N 37°55' W 122°25'0 0.0
2018-Jul-15 20:55N 37°55' W 122°25'0 0.0
2018-Jul-15 20:28N 37°55' W 122°25'0 0.0
2018-Jul-15 19:58N 37°55' W 122°25'0 0.5
2018-Jul-15 19:30N 37°55' W 122°25'0 0.0
2018-Jul-15 19:00N 37°55' W 122°25'0 0.4
2018-Jul-15 18:29N 37°55' W 122°25'0 0.6
2018-Jul-15 18:00N 37°55' W 122°25'0 0.6
2018-Jul-15 17:30N 37°55' W 122°25'0 0.3
2018-Jul-15 16:59N 37°55' W 122°25'0 0.0
2018-Jul-15 16:26N 37°55' W 122°25'0 0.0
2018-Jul-15 15:59N 37°55' W 122°25'0 0.0
2018-Jul-15 15:29N 37°55' W 122°25'0 0.0
2018-Jul-15 14:59N 37°55' W 122°25'0 0.0
2018-Jul-15 14:23N 37°55' W 122°25'0 0.0
2018-Jul-15 13:59N 37°55' W 122°25'0 0.0
2018-Jul-15 13:29N 37°55' W 122°25'0 0.0
2018-Jul-15 12:59N 37°55' W 122°25'0 0.0
2018-Jul-15 12:29N 37°55' W 122°25'0 0.0
2018-Jul-15 11:59N 37°55' W 122°25'0 0.0
2018-Jul-15 11:29N 37°55' W 122°25'0 0.0
2018-Jul-15 10:59N 37°55' W 122°25'0 0.0
2018-Jul-15 10:29N 37°55' W 122°25'0 0.0
2018-Jul-15 09:59N 37°55' W 122°25'0 0.0
2018-Jul-15 09:29N 37°55' W 122°25'0 0.0
2018-Jul-15 08:59N 37°55' W 122°25'0 0.0
2018-Jul-15 08:29N 37°55' W 122°25'0 0.0
2018-Jul-15 07:56N 37°55' W 122°25'0 0.0
2018-Jul-15 07:29N 37°55' W 122°25'0 0.0
2018-Jul-15 06:59N 37°55' W 122°25'0 0.0
2018-Jul-15 06:29N 37°55' W 122°25'0 0.0
2018-Jul-15 05:59N 37°55' W 122°25'0 0.0
2018-Jul-15 05:29N 37°55' W 122°25'0 0.0
2018-Jul-15 04:59N 37°55' W 122°25'0 0.0
2018-Jul-15 04:29N 37°55' W 122°25'0 0.0
2018-Jul-15 03:59N 37°55' W 122°25'0 0.0
2018-Jul-15 03:26N 37°55' W 122°25'0 0.5
2018-Jul-15 03:00N 37°55' W 122°25'1 1.7
2018-Jul-15 02:30N 37°55' W 122°25'2 3.2
2018-Jul-15 02:00N 37°53' W 122°25'2 3.7
2018-Jul-15 01:30N 37°55' W 122°25'0 0.8
2018-Jul-15 01:00N 37°55' W 122°25'0 0.0
2018-Jul-15 00:30N 37°55' W 122°25'0 0.0
2018-Jul-15 00:00N 37°55' W 122°25'0 0.0
2018-Jul-14 23:30N 37°55' W 122°25'0 0.0
2018-Jul-14 23:00N 37°55' W 122°25'0 0.0
2018-Jul-14 22:30N 37°55' W 122°25'0 0.0
2018-Jul-14 21:57N 37°55' W 122°25'0 0.0
2018-Jul-14 21:30N 37°55' W 122°25'0 0.0
2018-Jul-14 21:00N 37°55' W 122°25'0 0.9
2018-Jul-14 20:30N 37°56' W 122°25'1 1.2
2018-Jul-14 20:00N 37°55' W 122°25'4 8.0
2018-Jul-14 19:30N 37°51' W 122°25'5 9.1
2018-Jul-14 19:00N 37°49' W 122°29'2 3.1
2018-Jul-14 18:30N 37°48' W 122°31'1 1.6
2018-Jul-14 18:00N 37°48' W 122°30'2 4.9
2018-Jul-14 17:30N 37°50' W 122°28'4 8.0
2018-Jul-14 17:00N 37°50' W 122°23'1 2.8
2018-Jul-14 16:29N 37°49' W 122°22'0 0.0
2018-Jul-14 15:59N 37°49' W 122°22'0 0.0
2018-Jul-14 15:29N 37°49' W 122°22'0 0.0
2018-Jul-14 14:56N 37°49' W 122°22'0 0.0
2018-Jul-14 14:29N 37°49' W 122°22'3 2.9
2018-Jul-14 13:30N 37°48' W 122°19'0 0.0
2018-Jul-14 13:00N 37°48' W 122°19'0 0.1
2018-Jul-14 12:30N 37°48' W 122°19'2 3.8
2018-Jul-14 12:00N 37°48' W 122°21'1 2.1
2018-Jul-14 11:30N 37°49' W 122°22'3 5.5
2018-Jul-14 11:00N 37°48' W 122°19'1 1.1
2018-Jul-14 10:30N 37°48' W 122°18'0 0.7
2018-Jul-14 10:01N 37°48' W 122°18'2 4.5
2018-Jul-14 09:30N 37°48' W 122°20'2 4.5
2018-Jul-14 09:00N 37°49' W 122°23'1 2.4
2018-Jul-14 08:31N 37°49' W 122°22'0 0.0
2018-Jul-14 08:00N 37°49' W 122°22'0 0.0
2018-Jul-14 07:30N 37°49' W 122°22'0 0.0
2018-Jul-14 07:00N 37°49' W 122°22'0 0.0
2018-Jul-14 06:30N 37°49' W 122°22'0 0.0
2018-Jul-14 06:00N 37°49' W 122°22'0 0.0
2018-Jul-14 05:27N 37°49' W 122°22'0 0.1
2018-Jul-14 05:00N 37°49' W 122°22'0 0.1
2018-Jul-14 04:30N 37°49' W 122°22'0 0.0
2018-Jul-14 04:00N 37°49' W 122°22'0 0.0
2018-Jul-14 03:31N 37°49' W 122°22'2 3.8
2018-Jul-14 03:00N 37°49' W 122°19'4 7.4
2018-Jul-14 02:30N 37°46' W 122°21'2 3.0
2018-Jul-14 02:00N 37°47' W 122°22'4 8.0
2018-Jul-14 01:31N 37°49' W 122°27'4 8.2
2018-Jul-14 01:01N 37°48' W 122°31'1 2.7
2018-Jul-14 00:30N 37°48' W 122°30'3 6.5
2018-Jul-14 00:00N 37°51' W 122°28'510.2
2018-Jul-13 23:30N 37°55' W 122°25'0 0.6
2018-Jul-13 23:00N 37°55' W 122°25'0 0.0
2018-Jul-13 22:30N 37°55' W 122°25'0 0.0
2018-Jul-13 21:57N 37°55' W 122°25'0 0.3
2018-Jul-13 21:30N 37°55' W 122°25'0 0.0
2018-Jul-13 21:00N 37°55' W 122°25'0 0.9
2018-Jul-13 20:30N 37°55' W 122°25'2 3.9
2018-Jul-13 20:00N 37°53' W 122°25'1 2.0
2018-Jul-13 19:31N 37°54' W 122°25'2 4.0
2018-Jul-13 18:59N 37°54' W 122°22'0 0.0
2018-Jul-13 18:29N 37°54' W 122°22'0 0.0
2018-Jul-13 17:59N 37°54' W 122°22'0 0.0
2018-Jul-13 17:23N 37°54' W 122°22'0 0.0
2018-Jul-13 16:59N 37°54' W 122°22'0 0.0
2018-Jul-13 16:26N 37°54' W 122°22'0 0.0
2018-Jul-13 15:59N 37°54' W 122°22'0 0.0
2018-Jul-13 15:29N 37°54' W 122°22'0 0.0
2018-Jul-13 14:59N 37°54' W 122°22'0 0.0
2018-Jul-13 13:59N 37°54' W 122°22'0 0.0
2018-Jul-13 13:29N 37°54' W 122°22'0 0.0
2018-Jul-13 12:59N 37°54' W 122°22'0 1.0
2018-Jul-13 12:30N 37°54' W 122°23'510.3
2018-Jul-13 12:00N 37°59' W 122°25'612.4
2018-Jul-13 11:29N 38°03' W 122°19'611.6
2018-Jul-13 11:00N 38°03' W 122°12'4 5.0
2018-Jul-13 10:16N 38°02' W 122°07'0 0.0
2018-Jul-13 10:00N 38°02' W 122°07'0 0.0
2018-Jul-13 09:30N 38°02' W 122°07'0 0.0
2018-Jul-13 08:59N 38°02' W 122°07'0 0.1
2018-Jul-13 08:30N 38°02' W 122°08'1 1.9
2018-Jul-13 08:00N 38°02' W 122°09'4 8.1
2018-Jul-13 07:30N 38°04' W 122°13'510.8
2018-Jul-13 07:00N 38°03' W 122°20'510.6
2018-Jul-13 06:30N 37°60' W 122°25'510.6
2018-Jul-13 06:01N 37°55' W 122°27'5 9.6
2018-Jul-13 05:30N 37°50' W 122°24'4 8.0
2018-Jul-13 05:00N 37°49' W 122°29'1 2.0
2018-Jul-13 04:30N 37°48' W 122°30'2 3.2
2018-Jul-13 04:00N 37°49' W 122°28'4 8.3
2018-Jul-13 03:30N 37°50' W 122°23'2 3.7
2018-Jul-13 03:00N 37°49' W 122°22'0 0.0
2018-Jul-13 02:30N 37°49' W 122°22'0 0.0
2018-Jul-13 02:00N 37°49' W 122°22'0 0.0
2018-Jul-13 01:30N 37°49' W 122°22'0 0.0
2018-Jul-13 01:00N 37°49' W 122°22'2 3.6
2018-Jul-13 00:30N 37°48' W 122°20'1 1.5
2018-Jul-13 00:00N 37°48' W 122°19'0 0.0
2018-Jul-12 23:30N 37°48' W 122°19'3 5.3
2018-Jul-12 23:00N 37°50' W 122°22'4 8.8
2018-Jul-12 22:30N 37°53' W 122°25'2 4.5
2018-Jul-12 22:00N 37°54' W 122°22'0 0.0
2018-Jul-12 21:29N 37°54' W 122°22'0 0.0
2018-Jul-12 20:59N 37°54' W 122°22'0 0.0
2018-Jul-12 20:29N 37°54' W 122°22'0 0.0
2018-Jul-12 19:59N 37°54' W 122°22'0 0.0
2018-Jul-12 19:29N 37°54' W 122°22'0 0.0
2018-Jul-12 18:59N 37°54' W 122°22'0 0.0
2018-Jul-12 18:30N 37°54' W 122°22'0 0.1
2018-Jul-12 18:00N 37°54' W 122°22'1 2.0
2018-Jul-12 17:30N 37°55' W 122°22'1 1.0
2018-Jul-12 17:00N 37°55' W 122°22'1 1.5
2018-Jul-12 16:31N 37°54' W 122°22'5 9.1
2018-Jul-12 16:00N 37°52' W 122°27'3 6.2
2018-Jul-12 15:30N 37°49' W 122°29'1 1.3
2018-Jul-12 15:00N 37°49' W 122°30'4 8.1
2018-Jul-12 14:30N 37°51' W 122°25'4 7.0
2018-Jul-12 14:00N 37°54' W 122°25'1 2.4
2018-Jul-12 13:30N 37°55' W 122°25'0 0.2
2018-Jul-12 13:00N 37°55' W 122°25'0 0.0
2018-Jul-12 12:30N 37°55' W 122°25'1 1.4
2018-Jul-12 12:00N 37°55' W 122°25'5 9.6
2018-Jul-12 11:30N 37°50' W 122°22'4 7.1
2018-Jul-12 11:00N 37°48' W 122°19'0 0.8
2018-Jul-12 10:30N 37°48' W 122°19'1 2.2
2018-Jul-12 10:01N 37°48' W 122°17'2 4.5
2018-Jul-12 09:30N 37°48' W 122°20'3 5.6
2018-Jul-12 09:00N 37°49' W 122°23'3 5.4
2018-Jul-12 08:30N 37°52' W 122°24'3 5.8
2018-Jul-12 08:00N 37°54' W 122°22'0 0.0
2018-Jul-12 04:12N 37°54' W 122°22'0 0.3
2018-Jul-12 04:00N 37°54' W 122°22'1 1.1
2018-Jul-12 03:30N 37°55' W 122°22'0 0.6
2018-Jul-12 03:01N 37°54' W 122°22'3 5.7
2018-Jul-12 02:30N 37°55' W 122°25'1 1.9
2018-Jul-12 02:00N 37°56' W 122°25'0 0.8
2018-Jul-12 01:25N 37°55' W 122°25'0 0.0
2018-Jul-12 00:58N 37°55' W 122°25'0 0.0
2018-Jul-12 00:28N 37°55' W 122°25'0 0.0
2018-Jul-11 23:55N 37°55' W 122°25'0 0.0
2018-Jul-11 23:22N 37°55' W 122°25'0 0.0
2018-Jul-11 22:58N 37°55' W 122°25'0 0.0
2018-Jul-11 22:25N 37°55' W 122°25'0 0.0
2018-Jul-11 21:58N 37°55' W 122°25'0 0.0
2018-Jul-11 21:22N 37°55' W 122°25'0 0.0
2018-Jul-11 21:00N 37°55' W 122°25'0 0.0
2018-Jul-11 20:28N 37°55' W 122°25'0 0.0
2018-Jul-11 19:45N 37°55' W 122°25'0 0.0
2018-Jul-11 19:25N 37°55' W 122°25'0 0.0
2018-Jul-11 19:00N 37°55' W 122°25'0 0.0
2018-Jul-11 18:28N 37°55' W 122°25'0 0.0
2018-Jul-11 17:49N 37°55' W 122°25'0 0.0
2018-Jul-11 16:43N 37°55' W 122°25'0 0.0
2018-Jul-11 16:30N 37°55' W 122°25'2 3.9
2018-Jul-11 16:00N 37°54' W 122°23'1 1.7
2018-Jul-11 15:30N 37°55' W 122°22'0 0.8
2018-Jul-11 15:00N 37°54' W 122°22'0 0.0
2018-Jul-11 14:30N 37°55' W 122°22'0 0.0
2018-Jul-11 13:54N 37°55' W 122°22'0 0.0
2018-Jul-11 13:18N 37°55' W 122°22'0 0.0
2018-Jul-11 13:00N 37°55' W 122°22'0 0.0
2018-Jul-11 12:12N 37°55' W 122°22'0 0.0
2018-Jul-11 11:54N 37°54' W 122°22'2 5.0
2018-Jul-11 11:30N 37°55' W 122°24'1 1.2
2018-Jul-11 10:55N 37°55' W 122°25'0 0.0
2018-Jul-11 10:19N 37°55' W 122°25'0 0.0
2018-Jul-11 09:55N 37°55' W 122°25'0 0.0
2018-Jul-11 09:19N 37°55' W 122°25'0 0.0
2018-Jul-11 08:55N 37°55' W 122°25'0 0.0
2018-Jul-11 08:25N 37°55' W 122°25'0 0.0
2018-Jul-11 07:55N 37°55' W 122°25'0 0.0
2018-Jul-11 07:25N 37°55' W 122°25'0 0.0
2018-Jul-11 06:43N 37°55' W 122°25'0 0.0
2018-Jul-11 06:25N 37°55' W 122°25'0 0.0
2018-Jul-11 05:49N 37°55' W 122°25'0 0.0
2018-Jul-11 05:28N 37°55' W 122°25'0 0.0
2018-Jul-11 04:52N 37°55' W 122°25'0 0.0
2018-Jul-11 04:25N 37°55' W 122°25'2 5.0
2018-Jul-11 04:00N 37°54' W 122°22'1 2.0
2018-Jul-11 03:30N 37°55' W 122°22'1 2.2
2018-Jul-11 03:00N 37°54' W 122°23'3 5.7
2018-Jul-11 02:30N 37°52' W 122°24'4 8.2
2018-Jul-11 02:00N 37°48' W 122°21'0 0.7
2018-Jul-11 01:31N 37°48' W 122°21'4 7.4
2018-Jul-11 01:00N 37°51' W 122°23'4 7.5
2018-Jul-11 00:30N 37°54' W 122°25'2 4.9
2018-Jul-11 00:00N 37°55' W 122°22'0 0.2
2018-Jul-10 23:29N 37°55' W 122°22'1 1.8
2018-Jul-10 23:00N 37°54' W 122°22'0 0.0
2018-Jul-10 22:30N 37°54' W 122°22'0 0.0
2018-Jul-10 21:57N 37°54' W 122°22'0 0.0
2018-Jul-10 21:30N 37°54' W 122°22'0 0.0
2018-Jul-10 20:48N 37°54' W 122°22'0 0.0
2018-Jul-10 20:30N 37°54' W 122°22'0 0.0
2018-Jul-10 20:00N 37°54' W 122°22'0 0.0
2018-Jul-10 19:30N 37°54' W 122°22'0 0.0
2018-Jul-10 18:54N 37°54' W 122°22'0 0.0
2018-Jul-10 18:24N 37°54' W 122°22'0 0.0
2018-Jul-10 18:00N 37°54' W 122°22'0 0.0
2018-Jul-10 17:21N 37°54' W 122°22'0 0.0
2018-Jul-10 16:57N 37°54' W 122°22'0 0.0
2018-Jul-10 16:30N 37°54' W 122°22'0 0.0
2018-Jul-10 15:54N 37°54' W 122°22'0 0.0
2018-Jul-10 15:27N 37°54' W 122°22'0 0.0
2018-Jul-10 14:55N 37°54' W 122°22'2 5.0
2018-Jul-10 14:30N 37°55' W 122°25'0 0.0
2018-Jul-10 13:57N 37°55' W 122°25'0 0.0
2018-Jul-10 13:18N 37°55' W 122°25'0 0.0
2018-Jul-10 13:00N 37°55' W 122°25'0 0.0
2018-Jul-10 12:27N 37°55' W 122°25'0 0.0
2018-Jul-10 12:00N 37°55' W 122°25'0 0.0
2018-Jul-10 11:30N 37°55' W 122°25'0 0.0
2018-Jul-10 10:51N 37°55' W 122°25'0 0.0
2018-Jul-10 10:30N 37°55' W 122°25'0 0.0
2018-Jul-10 10:00N 37°55' W 122°25'0 0.0
2018-Jul-10 09:27N 37°55' W 122°25'0 0.0
2018-Jul-10 08:57N 37°55' W 122°25'0 0.0
2018-Jul-10 08:27N 37°55' W 122°25'0 0.0
2018-Jul-10 07:57N 37°55' W 122°25'0 0.0
2018-Jul-10 07:24N 37°55' W 122°25'0 0.0
2018-Jul-10 06:54N 37°55' W 122°25'0 0.0
2018-Jul-10 06:24N 37°55' W 122°25'0 0.0
2018-Jul-10 05:54N 37°55' W 122°25'0 0.0
2018-Jul-10 05:24N 37°55' W 122°25'0 0.4
2018-Jul-10 05:00N 37°55' W 122°25'5 8.9
2018-Jul-10 04:30N 37°60' W 122°25'5 9.6
2018-Jul-10 04:00N 38°03' W 122°20'5 9.1
2018-Jul-10 03:28N 38°04' W 122°14'0 0.0
2018-Jul-10 02:58N 38°04' W 122°14'0 0.0
2018-Jul-10 02:23N 38°04' W 122°14'0 0.0
2018-Jul-10 01:44N 38°04' W 122°14'0 0.0
2018-Jul-10 01:29N 38°04' W 122°14'0 0.0
2018-Jul-10 01:00N 38°04' W 122°14'1 2.6
2018-Jul-10 00:30N 38°04' W 122°15'2 4.6
2018-Jul-09 23:59N 38°03' W 122°18'3 4.4
2018-Jul-09 23:21N 38°02' W 122°22'2 4.4
2018-Jul-09 23:00N 38°01' W 122°23'5 5.4
2018-Jul-09 22:05N 37°57' W 122°27'0 5.2
2018-Jul-09 22:00N 37°57' W 122°26'3 5.2
2018-Jul-09 21:30N 37°55' W 122°24'2 3.8
2018-Jul-09 21:00N 37°54' W 122°22'0 0.2
2018-Jul-09 20:30N 37°54' W 122°22'0 0.6
2018-Jul-09 20:00N 37°54' W 122°22'0 0.0
2018-Jul-09 19:30N 37°54' W 122°22'0 0.2
2018-Jul-09 19:01N 37°54' W 122°22'1 1.7
2018-Jul-09 18:29N 37°55' W 122°22'0 0.5
2018-Jul-09 17:59N 37°55' W 122°22'1 1.5
2018-Jul-09 17:29N 37°55' W 122°22'3 6.3
2018-Jul-09 17:00N 37°52' W 122°24'611.5
2018-Jul-09 16:30N 37°47' W 122°22'910.7
2018-Jul-09 15:41N 37°38' W 122°19'210.6
2018-Jul-09 15:29N 37°37' W 122°17'510.2
2018-Jul-09 15:00N 37°34' W 122°12'0 0.2
2018-Jul-09 12:30N 37°33' W 122°12'5 7.0
2018-Jul-09 11:47N 37°37' W 122°17'3 9.6
2018-Jul-09 11:28N 37°39' W 122°19'4 9.7
2018-Jul-09 11:00N 37°43' W 122°21'4 8.5
2018-Jul-09 10:30N 37°47' W 122°23'0 0.0
2018-Jul-09 10:00N 37°47' W 122°23'4 7.1
2018-Jul-09 09:30N 37°51' W 122°24'5 9.3
2018-Jul-09 09:01N 37°55' W 122°25'0 0.4
2018-Jul-09 08:25N 37°55' W 122°25'0 0.0
2018-Jul-09 07:55N 37°55' W 122°25'0 0.0
2018-Jul-09 07:25N 37°55' W 122°25'0 0.0
2018-Jul-09 06:49N 37°55' W 122°25'0 0.0
2018-Jul-09 06:25N 37°55' W 122°25'0 0.0
2018-Jul-09 05:58N 37°55' W 122°25'0 0.0
2018-Jul-09 05:25N 37°55' W 122°25'0 0.0
2018-Jul-09 04:55N 37°55' W 122°25'0 0.0
2018-Jul-09 04:28N 37°55' W 122°25'0 0.0
2018-Jul-09 03:58N 37°55' W 122°25'0 0.0
2018-Jul-09 03:28N 37°55' W 122°25'0 0.0
2018-Jul-09 02:49N 37°55' W 122°25'0 0.0
2018-Jul-09 02:28N 37°55' W 122°25'0 0.0
2018-Jul-09 01:58N 37°55' W 122°25'0 0.0
2018-Jul-09 01:30N 37°55' W 122°25'0 0.0
2018-Jul-09 01:00N 37°55' W 122°25'0 0.0
2018-Jul-09 00:30N 37°55' W 122°25'4 8.1
2018-Jul-09 00:00N 37°51' W 122°23'4 8.5
2018-Jul-08 23:30N 37°48' W 122°20'1 2.1
2018-Jul-08 23:00N 37°48' W 122°19'0 0.2
2018-Jul-08 22:30N 37°48' W 122°19'4 8.0
2018-Jul-08 22:00N 37°51' W 122°23'5 9.9
2018-Jul-08 21:30N 37°55' W 122°24'0 0.3
2018-Jul-08 20:46N 37°55' W 122°25'0 0.0
2018-Jul-08 20:29N 37°55' W 122°25'0 0.0
2018-Jul-08 19:58N 37°55' W 122°25'0 0.0
2018-Jul-08 19:22N 37°55' W 122°25'0 0.0
2018-Jul-08 18:58N 37°55' W 122°25'0 0.0
2018-Jul-08 18:28N 37°55' W 122°25'0 0.0
2018-Jul-08 17:58N 37°55' W 122°25'0 0.0
2018-Jul-08 17:19N 37°55' W 122°25'0 0.0
2018-Jul-08 16:52N 37°55' W 122°25'0 0.0
2018-Jul-08 16:25N 37°55' W 122°25'0 0.0
2018-Jul-08 15:52N 37°55' W 122°25'0 0.0
2018-Jul-08 15:28N 37°55' W 122°25'0 0.0
2018-Jul-08 14:59N 37°55' W 122°25'2 5.0
2018-Jul-08 14:30N 37°53' W 122°25'4 8.0
2018-Jul-08 14:00N 37°50' W 122°22'3 5.7
2018-Jul-08 13:30N 37°48' W 122°19'0 0.5
2018-Jul-08 13:00N 37°48' W 122°19'1 1.3
2018-Jul-08 12:30N 37°48' W 122°18'3 5.8
2018-Jul-08 12:00N 37°48' W 122°21'2 4.4
2018-Jul-08 11:30N 37°50' W 122°23'5 9.8
2018-Jul-08 10:59N 37°55' W 122°25'1 0.9
2018-Jul-08 10:21N 37°55' W 122°25'0 0.0
2018-Jul-08 09:45N 37°55' W 122°25'0 0.0
2018-Jul-08 09:27N 37°55' W 122°25'0 0.0
2018-Jul-08 08:57N 37°55' W 122°25'0 0.0
2018-Jul-08 08:21N 37°55' W 122°25'0 0.0
2018-Jul-08 08:00N 37°55' W 122°25'0 0.0
2018-Jul-08 07:30N 37°55' W 122°25'0 0.0
2018-Jul-08 06:54N 37°55' W 122°25'0 0.0
2018-Jul-08 06:27N 37°55' W 122°25'0 0.0
2018-Jul-08 05:57N 37°55' W 122°25'0 0.0
2018-Jul-08 05:30N 37°55' W 122°25'0 0.0
2018-Jul-08 04:57N 37°55' W 122°25'0 0.0
2018-Jul-08 04:30N 37°55' W 122°25'0 0.0
2018-Jul-08 04:00N 37°55' W 122°25'0 0.0
2018-Jul-08 03:27N 37°55' W 122°25'0 0.0
2018-Jul-08 02:57N 37°55' W 122°25'0 0.0
2018-Jul-08 02:30N 37°55' W 122°25'0 0.0
2018-Jul-08 02:00N 37°55' W 122°25'0 0.0
2018-Jul-08 01:30N 37°55' W 122°25'3 6.3
2018-Jul-08 01:00N 37°53' W 122°26'4 8.4
2018-Jul-08 00:30N 37°49' W 122°29'1 1.5
2018-Jul-08 00:00N 37°49' W 122°30'3 6.5
2018-Jul-07 23:30N 37°51' W 122°27'3 5.1
2018-Jul-07 23:01N 37°53' W 122°25'3 5.2
2018-Jul-07 22:30N 37°55' W 122°25'1 1.0
2018-Jul-07 21:57N 37°55' W 122°25'0 0.4
2018-Jul-07 21:31N 37°55' W 122°25'0 0.2
2018-Jul-07 20:58N 37°55' W 122°25'0 0.0
2018-Jul-07 20:28N 37°55' W 122°25'0 0.0
2018-Jul-07 19:58N 37°55' W 122°25'0 0.0
2018-Jul-07 19:30N 37°55' W 122°25'0 0.0
2018-Jul-07 19:00N 37°55' W 122°25'0 0.0
2018-Jul-07 18:29N 37°55' W 122°25'0 0.0
2018-Jul-07 17:58N 37°55' W 122°25'0 0.0
2018-Jul-07 17:30N 37°55' W 122°25'0 0.0
2018-Jul-07 16:58N 37°55' W 122°25'0 0.0
2018-Jul-07 16:30N 37°55' W 122°25'0 0.0
2018-Jul-07 16:00N 37°55' W 122°25'0 0.3
2018-Jul-07 15:30N 37°55' W 122°25'0 0.0
2018-Jul-07 14:59N 37°55' W 122°25'0 0.0
2018-Jul-07 14:30N 37°55' W 122°25'1 2.5
2018-Jul-07 14:00N 37°54' W 122°25'1 2.2
2018-Jul-07 13:30N 37°53' W 122°25'3 4.9
2018-Jul-07 12:59N 37°56' W 122°25'1 1.4
2018-Jul-07 12:30N 37°55' W 122°25'2 3.3
2018-Jul-07 12:00N 37°54' W 122°25'2 3.7
2018-Jul-07 11:30N 37°55' W 122°25'0 0.0
2018-Jul-07 10:58N 37°55' W 122°25'0 0.0
2018-Jul-07 10:28N 37°55' W 122°25'0 0.0
2018-Jul-07 09:55N 37°55' W 122°25'0 0.0
2018-Jul-07 09:28N 37°55' W 122°25'0 0.0
2018-Jul-07 08:55N 37°55' W 122°25'0 0.0
2018-Jul-07 08:13N 37°55' W 122°25'0 0.0
2018-Jul-07 07:58N 37°55' W 122°25'0 0.0
2018-Jul-07 07:25N 37°55' W 122°25'0 0.0
2018-Jul-07 06:19N 37°55' W 122°25'0 0.0
2018-Jul-07 05:55N 37°55' W 122°25'0 0.0
2018-Jul-07 05:30N 37°55' W 122°25'1 2.0
2018-Jul-07 05:00N 37°55' W 122°25'1 2.2
2018-Jul-07 04:30N 37°56' W 122°25'0 0.1
2018-Jul-07 04:01N 37°56' W 122°25'0 0.8
2018-Jul-07 03:30N 37°55' W 122°25'0 0.3
2018-Jul-07 03:00N 37°55' W 122°25'0 0.0
2018-Jul-07 02:30N 37°55' W 122°25'0 0.0
2018-Jul-07 02:00N 37°55' W 122°25'0 0.0
2018-Jul-07 01:30N 37°55' W 122°25'0 0.0
2018-Jul-07 01:00N 37°55' W 122°25'0 0.0
2018-Jul-07 00:30N 37°55' W 122°25'0 0.0
2018-Jul-07 00:00N 37°55' W 122°25'0 0.0
2018-Jul-06 23:30N 37°55' W 122°25'0 0.0
2018-Jul-06 23:00N 37°55' W 122°25'0 0.0
2018-Jul-06 22:30N 37°55' W 122°25'0 0.0
2018-Jul-06 21:57N 37°55' W 122°25'0 0.0
2018-Jul-06 21:30N 37°55' W 122°25'0 0.0
2018-Jul-06 21:00N 37°55' W 122°25'0 0.0
2018-Jul-06 20:30N 37°55' W 122°25'0 0.0
2018-Jul-06 20:00N 37°55' W 122°25'0 0.0
2018-Jul-06 19:30N 37°55' W 122°25'0 0.0
2018-Jul-06 19:00N 37°55' W 122°25'0 0.0
2018-Jul-06 18:30N 37°55' W 122°25'0 0.0
2018-Jul-06 18:00N 37°55' W 122°25'0 0.0
2018-Jul-06 17:27N 37°55' W 122°25'0 0.0
2018-Jul-06 17:00N 37°55' W 122°25'0 0.0
2018-Jul-06 16:30N 37°55' W 122°25'0 0.0
2018-Jul-06 15:54N 37°55' W 122°25'0 0.0
2018-Jul-06 15:27N 37°55' W 122°25'0 0.0
2018-Jul-06 14:57N 37°55' W 122°25'  
Track history (hours):
 
Tides and Currents Weather Stations Pressure Air Temp Water Temp Dewpoint Dewpoint Depression Visibility Wind Speed Wind Dir Waves Ship Positions

Caden Foss

Owner: Foss Maritime Co, Seattle, WA. More information available from US FCC via Universal Licensing System and Coast Guard Vessel Documentation Center.

Last reported at 2018-Jul-16 14:30 UTC. Time now 2018-Jul-16 14:45 UTC.
Position N 37°54' W 122°22'.

Length 34 m; draft 6.1 m.

Type: Tug. MMSI: 367795270.

Date/timePositionNaut miles runAvg speedWind from/ knotsBaromVisibWave heightAir tempDewpointWater temp
2018-Jul-16 14:30N 37°54' W 122°22'0 0.0
2018-Jul-16 14:00N 37°54' W 122°22'2 4.4
2018-Jul-16 13:30N 37°54' W 122°25'5 9.2
2018-Jul-16 13:00N 37°50' W 122°22'4 8.0
2018-Jul-16 12:30N 37°48' W 122°19'0 0.1
2018-Jul-16 12:01N 37°48' W 122°19'0 0.1
2018-Jul-16 11:31N 37°48' W 122°18'3 5.4
2018-Jul-16 10:58N 37°49' W 122°22'0 0.0
2018-Jul-16 10:31N 37°49' W 122°22'0 0.0
2018-Jul-16 09:58N 37°49' W 122°22'0 0.1
2018-Jul-16 09:25N 37°49' W 122°22'0 0.0
2018-Jul-16 08:58N 37°49' W 122°22'0 0.0
2018-Jul-16 08:28N 37°49' W 122°22'2 5.2
2018-Jul-16 08:00N 37°51' W 122°23'3 6.5
2018-Jul-16 07:30N 37°54' W 122°24'2 3.9
2018-Jul-16 07:00N 37°55' W 122°22'0 0.2
2018-Jul-16 06:30N 37°55' W 122°22'1 1.8
2018-Jul-16 06:00N 37°54' W 122°23'2 4.3
2018-Jul-16 05:31N 37°55' W 122°25'1 1.7
2018-Jul-16 05:00N 37°56' W 122°25'1 1.2
2018-Jul-16 04:30N 37°55' W 122°24'0 0.2
2018-Jul-16 04:00N 37°55' W 122°25'0 0.0
2018-Jul-16 03:30N 37°55' W 122°25'0 0.0
2018-Jul-16 03:00N 37°55' W 122°25'1 3.0
2018-Jul-16 02:30N 37°54' W 122°25'4 8.4
2018-Jul-16 02:00N 37°50' W 122°28'3 6.6
2018-Jul-16 01:30N 37°49' W 122°32'3 5.8
2018-Jul-16 01:01N 37°50' W 122°28'5 9.8
2018-Jul-16 00:30N 37°48' W 122°22'4 8.1
2018-Jul-16 00:00N 37°44' W 122°20'2 3.6
2018-Jul-15 23:30N 37°46' W 122°21'510.4
2018-Jul-15 23:00N 37°51' W 122°24'4 8.8
2018-Jul-15 22:30N 37°55' W 122°25'0 0.5
2018-Jul-15 21:58N 37°55' W 122°25'0 0.0
2018-Jul-15 21:25N 37°55' W 122°25'0 0.0
2018-Jul-15 20:55N 37°55' W 122°25'0 0.0
2018-Jul-15 20:28N 37°55' W 122°25'0 0.0
2018-Jul-15 19:58N 37°55' W 122°25'0 0.5
2018-Jul-15 19:30N 37°55' W 122°25'0 0.0
2018-Jul-15 19:00N 37°55' W 122°25'0 0.4
2018-Jul-15 18:29N 37°55' W 122°25'0 0.6
2018-Jul-15 18:00N 37°55' W 122°25'0 0.6
2018-Jul-15 17:30N 37°55' W 122°25'0 0.3
2018-Jul-15 16:59N 37°55' W 122°25'0 0.0
2018-Jul-15 16:26N 37°55' W 122°25'0 0.0
2018-Jul-15 15:59N 37°55' W 122°25'0 0.0
2018-Jul-15 15:29N 37°55' W 122°25'0 0.0
2018-Jul-15 14:59N 37°55' W 122°25'0 0.0
2018-Jul-15 14:23N 37°55' W 122°25'0 0.0
2018-Jul-15 13:59N 37°55' W 122°25'0 0.0
2018-Jul-15 13:29N 37°55' W 122°25'0 0.0
2018-Jul-15 12:59N 37°55' W 122°25'0 0.0
2018-Jul-15 12:29N 37°55' W 122°25'0 0.0
2018-Jul-15 11:59N 37°55' W 122°25'0 0.0
2018-Jul-15 11:29N 37°55' W 122°25'0 0.0
2018-Jul-15 10:59N 37°55' W 122°25'0 0.0
2018-Jul-15 10:29N 37°55' W 122°25'0 0.0
2018-Jul-15 09:59N 37°55' W 122°25'0 0.0
2018-Jul-15 09:29N 37°55' W 122°25'0 0.0
2018-Jul-15 08:59N 37°55' W 122°25'0 0.0
2018-Jul-15 08:29N 37°55' W 122°25'0 0.0
2018-Jul-15 07:56N 37°55' W 122°25'0 0.0
2018-Jul-15 07:29N 37°55' W 122°25'0 0.0
2018-Jul-15 06:59N 37°55' W 122°25'0 0.0
2018-Jul-15 06:29N 37°55' W 122°25'0 0.0
2018-Jul-15 05:59N 37°55' W 122°25'0 0.0
2018-Jul-15 05:29N 37°55' W 122°25'0 0.0
2018-Jul-15 04:59N 37°55' W 122°25'0 0.0
2018-Jul-15 04:29N 37°55' W 122°25'0 0.0
2018-Jul-15 03:59N 37°55' W 122°25'0 0.0
2018-Jul-15 03:26N 37°55' W 122°25'0 0.5
2018-Jul-15 03:00N 37°55' W 122°25'1 1.7
2018-Jul-15 02:30N 37°55' W 122°25'2 3.2
2018-Jul-15 02:00N 37°53' W 122°25'2 3.7
2018-Jul-15 01:30N 37°55' W 122°25'0 0.8
2018-Jul-15 01:00N 37°55' W 122°25'0 0.0
2018-Jul-15 00:30N 37°55' W 122°25'0 0.0
2018-Jul-15 00:00N 37°55' W 122°25'0 0.0
2018-Jul-14 23:30N 37°55' W 122°25'0 0.0
2018-Jul-14 23:00N 37°55' W 122°25'0 0.0
2018-Jul-14 22:30N 37°55' W 122°25'0 0.0
2018-Jul-14 21:57N 37°55' W 122°25'0 0.0
2018-Jul-14 21:30N 37°55' W 122°25'0 0.0
2018-Jul-14 21:00N 37°55' W 122°25'0 0.9
2018-Jul-14 20:30N 37°56' W 122°25'1 1.2
2018-Jul-14 20:00N 37°55' W 122°25'4 8.0
2018-Jul-14 19:30N 37°51' W 122°25'5 9.1
2018-Jul-14 19:00N 37°49' W 122°29'2 3.1
2018-Jul-14 18:30N 37°48' W 122°31'1 1.6
2018-Jul-14 18:00N 37°48' W 122°30'2 4.9
2018-Jul-14 17:30N 37°50' W 122°28'4 8.0
2018-Jul-14 17:00N 37°50' W 122°23'1 2.8
2018-Jul-14 16:29N 37°49' W 122°22'0 0.0
2018-Jul-14 15:59N 37°49' W 122°22'0 0.0
2018-Jul-14 15:29N 37°49' W 122°22'0 0.0
2018-Jul-14 14:56N 37°49' W 122°22'0 0.0
2018-Jul-14 14:29N 37°49' W 122°22'3 2.9
2018-Jul-14 13:30N 37°48' W 122°19'0 0.0
2018-Jul-14 13:00N 37°48' W 122°19'0 0.1
2018-Jul-14 12:30N 37°48' W 122°19'2 3.8
2018-Jul-14 12:00N 37°48' W 122°21'1 2.1
2018-Jul-14 11:30N 37°49' W 122°22'3 5.5
2018-Jul-14 11:00N 37°48' W 122°19'1 1.1
2018-Jul-14 10:30N 37°48' W 122°18'0 0.7
2018-Jul-14 10:01N 37°48' W 122°18'2 4.5
2018-Jul-14 09:30N 37°48' W 122°20'2 4.5
2018-Jul-14 09:00N 37°49' W 122°23'1 2.4
2018-Jul-14 08:31N 37°49' W 122°22'0 0.0
2018-Jul-14 08:00N 37°49' W 122°22'0 0.0
2018-Jul-14 07:30N 37°49' W 122°22'0 0.0
2018-Jul-14 07:00N 37°49' W 122°22'0 0.0
2018-Jul-14 06:30N 37°49' W 122°22'0 0.0
2018-Jul-14 06:00N 37°49' W 122°22'0 0.0
2018-Jul-14 05:27N 37°49' W 122°22'0 0.1
2018-Jul-14 05:00N 37°49' W 122°22'0 0.1
2018-Jul-14 04:30N 37°49' W 122°22'0 0.0
2018-Jul-14 04:00N 37°49' W 122°22'0 0.0
2018-Jul-14 03:31N 37°49' W 122°22'2 3.8
2018-Jul-14 03:00N 37°49' W 122°19'4 7.4
2018-Jul-14 02:30N 37°46' W 122°21'2 3.0
2018-Jul-14 02:00N 37°47' W 122°22'4 8.0
2018-Jul-14 01:31N 37°49' W 122°27'4 8.2
2018-Jul-14 01:01N 37°48' W 122°31'1 2.7
2018-Jul-14 00:30N 37°48' W 122°30'3 6.5
2018-Jul-14 00:00N 37°51' W 122°28'510.2
2018-Jul-13 23:30N 37°55' W 122°25'0 0.6
2018-Jul-13 23:00N 37°55' W 122°25'0 0.0
2018-Jul-13 22:30N 37°55' W 122°25'0 0.0
2018-Jul-13 21:57N 37°55' W 122°25'0 0.3
2018-Jul-13 21:30N 37°55' W 122°25'0 0.0
2018-Jul-13 21:00N 37°55' W 122°25'0 0.9
2018-Jul-13 20:30N 37°55' W 122°25'2 3.9
2018-Jul-13 20:00N 37°53' W 122°25'1 2.0
2018-Jul-13 19:31N 37°54' W 122°25'2 4.0
2018-Jul-13 18:59N 37°54' W 122°22'0 0.0
2018-Jul-13 18:29N 37°54' W 122°22'0 0.0
2018-Jul-13 17:59N 37°54' W 122°22'0 0.0
2018-Jul-13 17:23N 37°54' W 122°22'0 0.0
2018-Jul-13 16:59N 37°54' W 122°22'0 0.0
2018-Jul-13 16:26N 37°54' W 122°22'0 0.0
2018-Jul-13 15:59N 37°54' W 122°22'0 0.0
2018-Jul-13 15:29N 37°54' W 122°22'0 0.0
2018-Jul-13 14:59N 37°54' W 122°22'0 0.0
2018-Jul-13 13:59N 37°54' W 122°22'0 0.0
2018-Jul-13 13:29N 37°54' W 122°22'0 0.0
2018-Jul-13 12:59N 37°54' W 122°22'0 1.0
2018-Jul-13 12:30N 37°54' W 122°23'510.3
2018-Jul-13 12:00N 37°59' W 122°25'612.4
2018-Jul-13 11:29N 38°03' W 122°19'611.6
2018-Jul-13 11:00N 38°03' W 122°12'4 5.0
2018-Jul-13 10:16N 38°02' W 122°07'0 0.0
2018-Jul-13 10:00N 38°02' W 122°07'0 0.0
2018-Jul-13 09:30N 38°02' W 122°07'0 0.0
2018-Jul-13 08:59N 38°02' W 122°07'0 0.1
2018-Jul-13 08:30N 38°02' W 122°08'1 1.9
2018-Jul-13 08:00N 38°02' W 122°09'4 8.1
2018-Jul-13 07:30N 38°04' W 122°13'510.8
2018-Jul-13 07:00N 38°03' W 122°20'510.6
2018-Jul-13 06:30N 37°60' W 122°25'510.6
2018-Jul-13 06:01N 37°55' W 122°27'5 9.6
2018-Jul-13 05:30N 37°50' W 122°24'4 8.0
2018-Jul-13 05:00N 37°49' W 122°29'1 2.0
2018-Jul-13 04:30N 37°48' W 122°30'2 3.2
2018-Jul-13 04:00N 37°49' W 122°28'4 8.3
2018-Jul-13 03:30N 37°50' W 122°23'2 3.7
2018-Jul-13 03:00N 37°49' W 122°22'0 0.0
2018-Jul-13 02:30N 37°49' W 122°22'0 0.0
2018-Jul-13 02:00N 37°49' W 122°22'0 0.0
2018-Jul-13 01:30N 37°49' W 122°22'0 0.0
2018-Jul-13 01:00N 37°49' W 122°22'2 3.6
2018-Jul-13 00:30N 37°48' W 122°20'1 1.5
2018-Jul-13 00:00N 37°48' W 122°19'0 0.0
2018-Jul-12 23:30N 37°48' W 122°19'3 5.3
2018-Jul-12 23:00N 37°50' W 122°22'4 8.8
2018-Jul-12 22:30N 37°53' W 122°25'2 4.5
2018-Jul-12 22:00N 37°54' W 122°22'0 0.0
2018-Jul-12 21:29N 37°54' W 122°22'0 0.0
2018-Jul-12 20:59N 37°54' W 122°22'0 0.0
2018-Jul-12 20:29N 37°54' W 122°22'0 0.0
2018-Jul-12 19:59N 37°54' W 122°22'0 0.0
2018-Jul-12 19:29N 37°54' W 122°22'0 0.0
2018-Jul-12 18:59N 37°54' W 122°22'0 0.0
2018-Jul-12 18:30N 37°54' W 122°22'0 0.1
2018-Jul-12 18:00N 37°54' W 122°22'1 2.0
2018-Jul-12 17:30N 37°55' W 122°22'1 1.0
2018-Jul-12 17:00N 37°55' W 122°22'1 1.5
2018-Jul-12 16:31N 37°54' W 122°22'5 9.1
2018-Jul-12 16:00N 37°52' W 122°27'3 6.2
2018-Jul-12 15:30N 37°49' W 122°29'1 1.3
2018-Jul-12 15:00N 37°49' W 122°30'4 8.1
2018-Jul-12 14:30N 37°51' W 122°25'4 7.0
2018-Jul-12 14:00N 37°54' W 122°25'1 2.4
2018-Jul-12 13:30N 37°55' W 122°25'0 0.2
2018-Jul-12 13:00N 37°55' W 122°25'0 0.0
2018-Jul-12 12:30N 37°55' W 122°25'1 1.4
2018-Jul-12 12:00N 37°55' W 122°25'5 9.6
2018-Jul-12 11:30N 37°50' W 122°22'4 7.1
2018-Jul-12 11:00N 37°48' W 122°19'0 0.8
2018-Jul-12 10:30N 37°48' W 122°19'1 2.2
2018-Jul-12 10:01N 37°48' W 122°17'2 4.5
2018-Jul-12 09:30N 37°48' W 122°20'3 5.6
2018-Jul-12 09:00N 37°49' W 122°23'3 5.4
2018-Jul-12 08:30N 37°52' W 122°24'3 5.8
2018-Jul-12 08:00N 37°54' W 122°22'0 0.0
2018-Jul-12 04:12N 37°54' W 122°22'0 0.3
2018-Jul-12 04:00N 37°54' W 122°22'1 1.1
2018-Jul-12 03:30N 37°55' W 122°22'0 0.6
2018-Jul-12 03:01N 37°54' W 122°22'3 5.7
2018-Jul-12 02:30N 37°55' W 122°25'1 1.9
2018-Jul-12 02:00N 37°56' W 122°25'0 0.8
2018-Jul-12 01:25N 37°55' W 122°25'0 0.0
2018-Jul-12 00:58N 37°55' W 122°25'0 0.0
2018-Jul-12 00:28N 37°55' W 122°25'0 0.0
2018-Jul-11 23:55N 37°55' W 122°25'0 0.0
2018-Jul-11 23:22N 37°55' W 122°25'0 0.0
2018-Jul-11 22:58N 37°55' W 122°25'0 0.0
2018-Jul-11 22:25N 37°55' W 122°25'0 0.0
2018-Jul-11 21:58N 37°55' W 122°25'0 0.0
2018-Jul-11 21:22N 37°55' W 122°25'0 0.0
2018-Jul-11 21:00N 37°55' W 122°25'0 0.0
2018-Jul-11 20:28N 37°55' W 122°25'0 0.0
2018-Jul-11 19:45N 37°55' W 122°25'0 0.0
2018-Jul-11 19:25N 37°55' W 122°25'0 0.0
2018-Jul-11 19:00N 37°55' W 122°25'0 0.0
2018-Jul-11 18:28N 37°55' W 122°25'0 0.0
2018-Jul-11 17:49N 37°55' W 122°25'0 0.0
2018-Jul-11 16:43N 37°55' W 122°25'0 0.0
2018-Jul-11 16:30N 37°55' W 122°25'2 3.9
2018-Jul-11 16:00N 37°54' W 122°23'1 1.7
2018-Jul-11 15:30N 37°55' W 122°22'0 0.8
2018-Jul-11 15:00N 37°54' W 122°22'0 0.0
2018-Jul-11 14:30N 37°55' W 122°22'0 0.0
2018-Jul-11 13:54N 37°55' W 122°22'0 0.0
2018-Jul-11 13:18N 37°55' W 122°22'0 0.0
2018-Jul-11 13:00N 37°55' W 122°22'0 0.0
2018-Jul-11 12:12N 37°55' W 122°22'0 0.0
2018-Jul-11 11:54N 37°54' W 122°22'2 5.0
2018-Jul-11 11:30N 37°55' W 122°24'1 1.2
2018-Jul-11 10:55N 37°55' W 122°25'0 0.0
2018-Jul-11 10:19N 37°55' W 122°25'0 0.0
2018-Jul-11 09:55N 37°55' W 122°25'0 0.0
2018-Jul-11 09:19N 37°55' W 122°25'0 0.0
2018-Jul-11 08:55N 37°55' W 122°25'0 0.0
2018-Jul-11 08:25N 37°55' W 122°25'0 0.0
2018-Jul-11 07:55N 37°55' W 122°25'0 0.0
2018-Jul-11 07:25N 37°55' W 122°25'0 0.0
2018-Jul-11 06:43N 37°55' W 122°25'0 0.0
2018-Jul-11 06:25N 37°55' W 122°25'0 0.0
2018-Jul-11 05:49N 37°55' W 122°25'0 0.0
2018-Jul-11 05:28N 37°55' W 122°25'0 0.0
2018-Jul-11 04:52N 37°55' W 122°25'0 0.0
2018-Jul-11 04:25N 37°55' W 122°25'2 5.0
2018-Jul-11 04:00N 37°54' W 122°22'1 2.0
2018-Jul-11 03:30N 37°55' W 122°22'1 2.2
2018-Jul-11 03:00N 37°54' W 122°23'3 5.7
2018-Jul-11 02:30N 37°52' W 122°24'4 8.2
2018-Jul-11 02:00N 37°48' W 122°21'0 0.7
2018-Jul-11 01:31N 37°48' W 122°21'4 7.4
2018-Jul-11 01:00N 37°51' W 122°23'4 7.5
2018-Jul-11 00:30N 37°54' W 122°25'2 4.9
2018-Jul-11 00:00N 37°55' W 122°22'0 0.2
2018-Jul-10 23:29N 37°55' W 122°22'1 1.8
2018-Jul-10 23:00N 37°54' W 122°22'0 0.0
2018-Jul-10 22:30N 37°54' W 122°22'0 0.0
2018-Jul-10 21:57N 37°54' W 122°22'0 0.0
2018-Jul-10 21:30N 37°54' W 122°22'0 0.0
2018-Jul-10 20:48N 37°54' W 122°22'0 0.0
2018-Jul-10 20:30N 37°54' W 122°22'0 0.0
2018-Jul-10 20:00N 37°54' W 122°22'0 0.0
2018-Jul-10 19:30N 37°54' W 122°22'0 0.0
2018-Jul-10 18:54N 37°54' W 122°22'0 0.0
2018-Jul-10 18:24N 37°54' W 122°22'0 0.0
2018-Jul-10 18:00N 37°54' W 122°22'0 0.0
2018-Jul-10 17:21N 37°54' W 122°22'0 0.0
2018-Jul-10 16:57N 37°54' W 122°22'0 0.0
2018-Jul-10 16:30N 37°54' W 122°22'0 0.0
2018-Jul-10 15:54N 37°54' W 122°22'0 0.0
2018-Jul-10 15:27N 37°54' W 122°22'0 0.0
2018-Jul-10 14:55N 37°54' W 122°22'2 5.0
2018-Jul-10 14:30N 37°55' W 122°25'0 0.0
2018-Jul-10 13:57N 37°55' W 122°25'0 0.0
2018-Jul-10 13:18N 37°55' W 122°25'0 0.0
2018-Jul-10 13:00N 37°55' W 122°25'0 0.0
2018-Jul-10 12:27N 37°55' W 122°25'0 0.0
2018-Jul-10 12:00N 37°55' W 122°25'0 0.0
2018-Jul-10 11:30N 37°55' W 122°25'0 0.0
2018-Jul-10 10:51N 37°55' W 122°25'0 0.0
2018-Jul-10 10:30N 37°55' W 122°25'0 0.0
2018-Jul-10 10:00N 37°55' W 122°25'0 0.0
2018-Jul-10 09:27N 37°55' W 122°25'0 0.0
2018-Jul-10 08:57N 37°55' W 122°25'0 0.0
2018-Jul-10 08:27N 37°55' W 122°25'0 0.0
2018-Jul-10 07:57N 37°55' W 122°25'0 0.0
2018-Jul-10 07:24N 37°55' W 122°25'0 0.0
2018-Jul-10 06:54N 37°55' W 122°25'0 0.0
2018-Jul-10 06:24N 37°55' W 122°25'0 0.0
2018-Jul-10 05:54N 37°55' W 122°25'0 0.0
2018-Jul-10 05:24N 37°55' W 122°25'0 0.4
2018-Jul-10 05:00N 37°55' W 122°25'5 8.9
2018-Jul-10 04:30N 37°60' W 122°25'5 9.6
2018-Jul-10 04:00N 38°03' W 122°20'5 9.1
2018-Jul-10 03:28N 38°04' W 122°14'0 0.0
2018-Jul-10 02:58N 38°04' W 122°14'0 0.0
2018-Jul-10 02:23N 38°04' W 122°14'0 0.0
2018-Jul-10 01:44N 38°04' W 122°14'0 0.0
2018-Jul-10 01:29N 38°04' W 122°14'0 0.0
2018-Jul-10 01:00N 38°04' W 122°14'1 2.6
2018-Jul-10 00:30N 38°04' W 122°15'2 4.6
2018-Jul-09 23:59N 38°03' W 122°18'3 4.4
2018-Jul-09 23:21N 38°02' W 122°22'2 4.4
2018-Jul-09 23:00N 38°01' W 122°23'5 5.4
2018-Jul-09 22:05N 37°57' W 122°27'0 5.2
2018-Jul-09 22:00N 37°57' W 122°26'3 5.2
2018-Jul-09 21:30N 37°55' W 122°24'2 3.8
2018-Jul-09 21:00N 37°54' W 122°22'0 0.2
2018-Jul-09 20:30N 37°54' W 122°22'0 0.6
2018-Jul-09 20:00N 37°54' W 122°22'0 0.0
2018-Jul-09 19:30N 37°54' W 122°22'0 0.2
2018-Jul-09 19:01N 37°54' W 122°22'1 1.7
2018-Jul-09 18:29N 37°55' W 122°22'0 0.5
2018-Jul-09 17:59N 37°55' W 122°22'1 1.5
2018-Jul-09 17:29N 37°55' W 122°22'3 6.3
2018-Jul-09 17:00N 37°52' W 122°24'611.5
2018-Jul-09 16:30N 37°47' W 122°22'910.7
2018-Jul-09 15:41N 37°38' W 122°19'210.6
2018-Jul-09 15:29N 37°37' W 122°17'510.2
2018-Jul-09 15:00N 37°34' W 122°12'0 0.2
2018-Jul-09 12:30N 37°33' W 122°12'5 7.0
2018-Jul-09 11:47N 37°37' W 122°17'3 9.6
2018-Jul-09 11:28N 37°39' W 122°19'4 9.7
2018-Jul-09 11:00N 37°43' W 122°21'4 8.5
2018-Jul-09 10:30N 37°47' W 122°23'0 0.0
2018-Jul-09 10:00N 37°47' W 122°23'4 7.1
2018-Jul-09 09:30N 37°51' W 122°24'5 9.3
2018-Jul-09 09:01N 37°55' W 122°25'0 0.4
2018-Jul-09 08:25N 37°55' W 122°25'0 0.0
2018-Jul-09 07:55N 37°55' W 122°25'0 0.0
2018-Jul-09 07:25N 37°55' W 122°25'0 0.0
2018-Jul-09 06:49N 37°55' W 122°25'0 0.0
2018-Jul-09 06:25N 37°55' W 122°25'0 0.0
2018-Jul-09 05:58N 37°55' W 122°25'0 0.0
2018-Jul-09 05:25N 37°55' W 122°25'0 0.0
2018-Jul-09 04:55N 37°55' W 122°25'0 0.0
2018-Jul-09 04:28N 37°55' W 122°25'0 0.0
2018-Jul-09 03:58N 37°55' W 122°25'0 0.0
2018-Jul-09 03:28N 37°55' W 122°25'0 0.0
2018-Jul-09 02:49N 37°55' W 122°25'0 0.0
2018-Jul-09 02:28N 37°55' W 122°25'0 0.0
2018-Jul-09 01:58N 37°55' W 122°25'0 0.0
2018-Jul-09 01:30N 37°55' W 122°25'0 0.0
2018-Jul-09 01:00N 37°55' W 122°25'0 0.0
2018-Jul-09 00:30N 37°55' W 122°25'4 8.1
2018-Jul-09 00:00N 37°51' W 122°23'4 8.5
2018-Jul-08 23:30N 37°48' W 122°20'1 2.1
2018-Jul-08 23:00N 37°48' W 122°19'0 0.2
2018-Jul-08 22:30N 37°48' W 122°19'4 8.0
2018-Jul-08 22:00N 37°51' W 122°23'5 9.9
2018-Jul-08 21:30N 37°55' W 122°24'0 0.3
2018-Jul-08 20:46N 37°55' W 122°25'0 0.0
2018-Jul-08 20:29N 37°55' W 122°25'0 0.0
2018-Jul-08 19:58N 37°55' W 122°25'0 0.0
2018-Jul-08 19:22N 37°55' W 122°25'0 0.0
2018-Jul-08 18:58N 37°55' W 122°25'0 0.0
2018-Jul-08 18:28N 37°55' W 122°25'0 0.0
2018-Jul-08 17:58N 37°55' W 122°25'0 0.0
2018-Jul-08 17:19N 37°55' W 122°25'0 0.0
2018-Jul-08 16:52N 37°55' W 122°25'0 0.0
2018-Jul-08 16:25N 37°55' W 122°25'0 0.0
2018-Jul-08 15:52N 37°55' W 122°25'0 0.0
2018-Jul-08 15:28N 37°55' W 122°25'0 0.0
2018-Jul-08 14:59N 37°55' W 122°25'2 5.0
2018-Jul-08 14:30N 37°53' W 122°25'4 8.0
2018-Jul-08 14:00N 37°50' W 122°22'3 5.7
2018-Jul-08 13:30N 37°48' W 122°19'0 0.5
2018-Jul-08 13:00N 37°48' W 122°19'1 1.3
2018-Jul-08 12:30N 37°48' W 122°18'3 5.8
2018-Jul-08 12:00N 37°48' W 122°21'2 4.4
2018-Jul-08 11:30N 37°50' W 122°23'5 9.8
2018-Jul-08 10:59N 37°55' W 122°25'1 0.9
2018-Jul-08 10:21N 37°55' W 122°25'0 0.0
2018-Jul-08 09:45N 37°55' W 122°25'0 0.0
2018-Jul-08 09:27N 37°55' W 122°25'0 0.0
2018-Jul-08 08:57N 37°55' W 122°25'0 0.0
2018-Jul-08 08:21N 37°55' W 122°25'0 0.0
2018-Jul-08 08:00N 37°55' W 122°25'0 0.0
2018-Jul-08 07:30N 37°55' W 122°25'0 0.0
2018-Jul-08 06:54N 37°55' W 122°25'0 0.0
2018-Jul-08 06:27N 37°55' W 122°25'0 0.0
2018-Jul-08 05:57N 37°55' W 122°25'0 0.0
2018-Jul-08 05:30N 37°55' W 122°25'0 0.0
2018-Jul-08 04:57N 37°55' W 122°25'0 0.0
2018-Jul-08 04:30N 37°55' W 122°25'0 0.0
2018-Jul-08 04:00N 37°55' W 122°25'0 0.0
2018-Jul-08 03:27N 37°55' W 122°25'0 0.0
2018-Jul-08 02:57N 37°55' W 122°25'0 0.0
2018-Jul-08 02:30N 37°55' W 122°25'0 0.0
2018-Jul-08 02:00N 37°55' W 122°25'0 0.0
2018-Jul-08 01:30N 37°55' W 122°25'3 6.3
2018-Jul-08 01:00N 37°53' W 122°26'4 8.4
2018-Jul-08 00:30N 37°49' W 122°29'1 1.5
2018-Jul-08 00:00N 37°49' W 122°30'3 6.5
2018-Jul-07 23:30N 37°51' W 122°27'3 5.1
2018-Jul-07 23:01N 37°53' W 122°25'3 5.2
2018-Jul-07 22:30N 37°55' W 122°25'1 1.0
2018-Jul-07 21:57N 37°55' W 122°25'0 0.4
2018-Jul-07 21:31N 37°55' W 122°25'0 0.2
2018-Jul-07 20:58N 37°55' W 122°25'0 0.0
2018-Jul-07 20:28N 37°55' W 122°25'0 0.0
2018-Jul-07 19:58N 37°55' W 122°25'0 0.0
2018-Jul-07 19:30N 37°55' W 122°25'0 0.0
2018-Jul-07 19:00N 37°55' W 122°25'0 0.0
2018-Jul-07 18:29N 37°55' W 122°25'0 0.0
2018-Jul-07 17:58N 37°55' W 122°25'0 0.0
2018-Jul-07 17:30N 37°55' W 122°25'0 0.0
2018-Jul-07 16:58N 37°55' W 122°25'0 0.0
2018-Jul-07 16:30N 37°55' W 122°25'0 0.0
2018-Jul-07 16:00N 37°55' W 122°25'0 0.3
2018-Jul-07 15:30N 37°55' W 122°25'0 0.0
2018-Jul-07 14:59N 37°55' W 122°25'0 0.0
2018-Jul-07 14:30N 37°55' W 122°25'1 2.5
2018-Jul-07 14:00N 37°54' W 122°25'1 2.2
2018-Jul-07 13:30N 37°53' W 122°25'3 4.9
2018-Jul-07 12:59N 37°56' W 122°25'1 1.4
2018-Jul-07 12:30N 37°55' W 122°25'2 3.3
2018-Jul-07 12:00N 37°54' W 122°25'2 3.7
2018-Jul-07 11:30N 37°55' W 122°25'0 0.0
2018-Jul-07 10:58N 37°55' W 122°25'0 0.0
2018-Jul-07 10:28N 37°55' W 122°25'0 0.0
2018-Jul-07 09:55N 37°55' W 122°25'0 0.0
2018-Jul-07 09:28N 37°55' W 122°25'0 0.0
2018-Jul-07 08:55N 37°55' W 122°25'0 0.0
2018-Jul-07 08:13N 37°55' W 122°25'0 0.0
2018-Jul-07 07:58N 37°55' W 122°25'0 0.0
2018-Jul-07 07:25N 37°55' W 122°25'0 0.0
2018-Jul-07 06:19N 37°55' W 122°25'0 0.0
2018-Jul-07 05:55N 37°55' W 122°25'0 0.0
2018-Jul-07 05:30N 37°55' W 122°25'1 2.0
2018-Jul-07 05:00N 37°55' W 122°25'1 2.2
2018-Jul-07 04:30N 37°56' W 122°25'0 0.1
2018-Jul-07 04:01N 37°56' W 122°25'0 0.8
2018-Jul-07 03:30N 37°55' W 122°25'0 0.3
2018-Jul-07 03:00N 37°55' W 122°25'0 0.0
2018-Jul-07 02:30N 37°55' W 122°25'0 0.0
2018-Jul-07 02:00N 37°55' W 122°25'0 0.0
2018-Jul-07 01:30N 37°55' W 122°25'0 0.0
2018-Jul-07 01:00N 37°55' W 122°25'0 0.0
2018-Jul-07 00:30N 37°55' W 122°25'0 0.0
2018-Jul-07 00:00N 37°55' W 122°25'0 0.0
2018-Jul-06 23:30N 37°55' W 122°25'0 0.0
2018-Jul-06 23:00N 37°55' W 122°25'0 0.0
2018-Jul-06 22:30N 37°55' W 122°25'0 0.0
2018-Jul-06 21:57N 37°55' W 122°25'0 0.0
2018-Jul-06 21:30N 37°55' W 122°25'0 0.0
2018-Jul-06 21:00N 37°55' W 122°25'0 0.0
2018-Jul-06 20:30N 37°55' W 122°25'0 0.0
2018-Jul-06 20:00N 37°55' W 122°25'0 0.0
2018-Jul-06 19:30N 37°55' W 122°25'0 0.0
2018-Jul-06 19:00N 37°55' W 122°25'0 0.0
2018-Jul-06 18:30N 37°55' W 122°25'0 0.0
2018-Jul-06 18:00N 37°55' W 122°25'0 0.0
2018-Jul-06 17:27N 37°55' W 122°25'0 0.0
2018-Jul-06 17:00N 37°55' W 122°25'0 0.0
2018-Jul-06 16:30N 37°55' W 122°25'0 0.0
2018-Jul-06 15:54N 37°55' W 122°25'0 0.0
2018-Jul-06 15:27N 37°55' W 122°25'0 0.0
2018-Jul-06 14:57N 37°55' W 122°25'  

Dump ship's entire track history